Main page
METAR-TAF:

METAR-TAF

Airports :

Land's End Airport

Land's End, England

latitude: 50-06-10N, longitude: 005-40-14W, elevation: 122 m

Current weather observation

The report was made 8 hours and 5 minutes ago, at 15:20 UTC
Wind 15 kt from the Southwest, varying between South/Southwest and West
Temperature 13°C
Humidity 100%
Pressure 1004 hPa
Visibility: 0100 m
light rain, fog,

METAR: EGHC 131520Z 23015KT 200V270 0100 -RA FG VV/// 13/13 Q1004

Time: 00:25 (23:25 UTC)

Forecast

The report was made 7 hours and 55 minutes ago, at 15:30 UTC
Forecast valid from 13 at 15 UTC to 13 at 18 UTC
Wind 15 kt from the South/Southwest
Visibility: 0300 m
Broken clouds at a height lower than 100 ft
fog
Becoming
from 13 at 15 UTC to 13 at 18 UTC
Wind 15 kt from the West
Visibility 10 km or more
Scattered clouds at a height of 2000 ft

TAF: EGHC 131530Z 1315/1318 21015KT 0300 FG BKN000 BECMG 1315/1318 27015KT 9999 NSW SCT020

Weather observations and forecasts of more than 4000 airports (METAR and TAF reports).

The available stations are represented by yellow and red dots on the map.

Hover mouse over dot to see the name of the station.

Then click to see weather observations and forecasts.

To change the map : click on the green buttons with a black cross to zoom in, on the green button with a dash to zoom out, or on the green arrows for adjacent maps.


METAR-TAF: